Time;durP1;ratioP1;P1;durP2;ratioP2;P2;SDS_P1;SDS_P2;PMS_P1;PMS_P2;Temp;Humidity;BMP_temperature;BMP_pressure;BME280_temperature;BME280_humidity;BME280_pressure;Samples;Min_cycle;Max_cycle;Signal;HPM_P1;HPM_P2
2021/03/14 00:01:04;;;;;;;10.73;1.55;;;6.10;99.90;;;;;;5033700;28;20113;-58
2021/03/14 00:03:30;;;;;;;9.55;1.90;;;6.10;99.90;;;;;;5032486;28;20069;-58
2021/03/14 00:05:57;;;;;;;7.40;1.65;;;6.10;99.90;;;;;;5033579;28;20029;-60
2021/03/14 00:08:25;;;;;;;9.63;1.75;;;6.20;99.90;;;;;;5032114;28;20037;-60
2021/03/14 00:10:53;;;;;;;8.13;1.92;;;6.20;99.90;;;;;;5031640;28;20098;-58
2021/03/14 00:13:24;;;;;;;8.57;1.20;;;6.20;99.90;;;;;;5030612;28;20570;-58
2021/03/14 00:15:50;;;;;;;8.70;1.50;;;6.20;99.90;;;;;;5032764;28;20471;-58
2021/03/14 00:18:18;;;;;;;8.90;1.80;;;6.10;99.90;;;;;;5031465;28;20109;-59
2021/03/14 00:20:44;;;;;;;9.77;1.88;;;6.20;99.90;;;;;;5031714;28;20607;-59
2021/03/14 00:23:10;;;;;;;8.00;1.75;;;6.20;99.90;;;;;;5031832;28;20112;-58
2021/03/14 00:25:37;;;;;;;8.65;1.60;;;6.10;99.90;;;;;;5031690;28;20120;-58
2021/03/14 00:28:03;;;;;;;5.40;1.58;;;6.20;99.90;;;;;;5031180;28;20042;-59
2021/03/14 00:30:29;;;;;;;8.30;1.90;;;6.10;99.90;;;;;;5033130;28;20021;-59
2021/03/14 00:32:56;;;;;;;9.95;2.30;;;6.20;99.90;;;;;;5032059;28;20836;-57
2021/03/14 00:35:23;;;;;;;12.48;1.80;;;6.30;99.90;;;;;;5033190;28;20037;-59
2021/03/14 00:37:49;;;;;;;9.82;2.08;;;6.30;99.90;;;;;;5031755;28;20057;-59
2021/03/14 00:40:16;;;;;;;5.25;1.40;;;6.30;99.90;;;;;;5031676;28;20505;-61
2021/03/14 00:42:41;;;;;;;10.50;1.90;;;6.30;99.90;;;;;;5031669;28;20479;-58
2021/03/14 00:45:08;;;;;;;8.93;1.55;;;6.30;99.90;;;;;;5033538;28;20040;-59
2021/03/14 00:47:35;;;;;;;6.88;1.80;;;6.30;99.90;;;;;;5031633;28;20045;-60
2021/03/14 00:50:01;;;;;;;8.02;1.60;;;6.30;99.90;;;;;;5032823;28;20438;-60
2021/03/14 00:52:27;;;;;;;7.53;1.75;;;6.30;99.90;;;;;;5031745;28;20032;-59
2021/03/14 00:54:53;;;;;;;9.90;1.92;;;6.20;99.90;;;;;;5031153;28;20025;-58
2021/03/14 00:57:18;;;;;;;7.65;1.70;;;6.30;99.90;;;;;;5031833;28;20495;-59
2021/03/14 00:59:44;;;;;;;9.05;1.52;;;6.30;99.90;;;;;;5032601;28;20471;-58
2021/03/14 01:02:10;;;;;;;8.82;1.77;;;6.30;99.90;;;;;;5012895;28;20029;-59
2021/03/14 01:04:35;;;;;;;6.10;1.60;;;6.40;99.90;;;;;;5032617;28;20030;-60
2021/03/14 01:07:01;;;;;;;7.82;1.30;;;6.40;99.90;;;;;;5031227;28;20037;-59
2021/03/14 01:09:27;;;;;;;7.07;1.33;;;6.40;99.90;;;;;;5032493;28;20038;-59
2021/03/14 01:11:52;;;;;;;4.57;1.50;;;6.40;99.90;;;;;;5032539;28;20113;-59
2021/03/14 01:14:18;;;;;;;4.93;1.40;;;6.40;99.90;;;;;;5031583;28;20029;-57
2021/03/14 01:16:44;;;;;;;4.88;1.23;;;6.40;99.90;;;;;;5032286;28;20025;-59
2021/03/14 01:19:10;;;;;;;5.68;1.42;;;6.40;99.90;;;;;;5030871;28;20476;-58
2021/03/14 01:21:35;;;;;;;3.67;1.30;;;6.50;99.90;;;;;;5021378;28;20045;-57
2021/03/14 01:24:01;;;;;;;3.25;1.10;;;6.50;99.90;;;;;;5011322;28;20072;-60
2021/03/14 01:26:27;;;;;;;5.82;1.50;;;6.50;99.90;;;;;;5012422;28;20511;-59
2021/03/14 01:28:53;;;;;;;7.45;1.48;;;6.50;99.90;;;;;;5011163;28;20033;-59
2021/03/14 01:31:18;;;;;;;6.10;1.08;;;6.50;99.90;;;;;;5011756;28;20101;-57
2021/03/14 01:33:44;;;;;;;7.75;1.15;;;6.40;99.90;;;;;;5010938;28;20041;-59
2021/03/14 01:36:10;;;;;;;4.32;1.20;;;6.50;99.90;;;;;;5011767;28;20037;-58
2021/03/14 01:38:36;;;;;;;6.25;1.40;;;6.50;99.90;;;;;;5011440;28;20034;-59
2021/03/14 01:41:02;;;;;;;6.18;1.48;;;6.50;99.90;;;;;;5011579;28;20111;-59
2021/03/14 01:43:30;;;;;;;5.35;1.30;;;6.50;99.90;;;;;;5011423;28;20026;-57
2021/03/14 01:45:56;;;;;;;7.63;1.27;;;6.50;99.90;;;;;;5011997;28;20037;-60
2021/03/14 01:48:25;;;;;;;6.00;1.50;;;6.50;99.90;;;;;;5010853;28;20040;-55
2021/03/14 01:50:51;;;;;;;4.10;1.15;;;6.50;99.90;;;;;;5011750;28;20061;-59
2021/03/14 01:53:18;;;;;;;3.20;1.20;;;6.40;99.90;;;;;;5010354;28;20034;-59
2021/03/14 01:55:44;;;;;;;7.63;1.70;;;6.40;99.90;;;;;;5011405;28;20038;-57
2021/03/14 01:58:11;;;;;;;5.35;1.30;;;6.40;99.90;;;;;;5010572;28;20030;-59
2021/03/14 02:00:37;;;;;;;4.13;1.00;;;6.40;99.90;;;;;;5011389;28;20029;-58
2021/03/14 02:03:03;;;;;;;3.03;1.05;;;6.40;99.90;;;;;;5000999;28;20029;-57
2021/03/14 02:05:29;;;;;;;4.43;1.08;;;6.40;99.90;;;;;;5011606;28;20042;-58
2021/03/14 02:07:55;;;;;;;6.00;1.23;;;6.40;99.90;;;;;;5010052;28;20033;-58
2021/03/14 02:10:24;;;;;;;5.10;1.10;;;6.40;99.90;;;;;;5011697;28;20032;-58
2021/03/14 02:12:59;;;;;;;7.25;1.20;;;6.40;99.90;;;;;;5010589;28;20523;-59
2021/03/14 02:15:27;;;;;;;5.57;1.15;;;6.30;99.90;;;;;;5011520;28;20066;-56
2021/03/14 02:17:55;;;;;;;6.80;1.20;;;6.30;99.90;;;;;;5009771;28;20464;-57
2021/03/14 02:20:26;;;;;;;4.70;1.23;;;6.20;99.90;;;;;;5011737;28;20037;-58
2021/03/14 02:23:04;;;;;;;5.20;1.10;;;6.20;99.90;;;;;;5010255;28;20030;-58
2021/03/14 02:25:58;;;;;;;4.38;1.20;;;6.20;99.90;;;;;;5010912;28;20551;-58
2021/03/14 02:28:24;;;;;;;4.75;1.00;;;6.20;99.90;;;;;;5010477;28;20487;-57
2021/03/14 02:30:50;;;;;;;5.97;1.48;;;6.10;99.90;;;;;;5011777;28;20057;-58
2021/03/14 02:33:22;;;;;;;3.47;1.08;;;6.10;99.90;;;;;;5010459;28;20030;-57
2021/03/14 02:35:51;;;;;;;6.72;1.50;;;6.10;99.90;;;;;;5013489;28;20044;-58
2021/03/14 02:38:18;;;;;;;4.10;1.20;;;6.10;99.90;;;;;;5010371;28;20070;-59
2021/03/14 02:40:44;;;;;;;4.70;1.00;;;6.10;99.90;;;;;;5010809;28;20076;-59
2021/03/14 02:43:10;;;;;;;6.68;1.52;;;6.20;99.90;;;;;;5010075;28;20038;-59
2021/03/14 02:45:37;;;;;;;4.25;1.00;;;6.20;99.90;;;;;;5011287;28;20048;-59
2021/03/14 02:48:05;;;;;;;4.00;1.20;;;6.20;99.90;;;;;;5009653;28;20036;-58
2021/03/14 02:50:31;;;;;;;6.88;1.02;;;6.20;99.90;;;;;;5011477;28;20068;-61
2021/03/14 02:52:58;;;;;;;5.80;1.20;;;6.20;99.90;;;;;;5009424;28;20561;-58
2021/03/14 02:55:26;;;;;;;3.17;1.02;;;6.20;99.90;;;;;;5010661;28;20472;-60
2021/03/14 02:57:54;;;;;;;4.03;1.10;;;6.20;99.90;;;;;;5009680;28;20030;-61
2021/03/14 03:00:23;;;;;;;5.20;1.38;;;6.30;99.90;;;;;;5010516;28;20069;-58
2021/03/14 03:02:55;;;;;;;5.03;1.40;;;6.30;99.90;;;;;;5009557;28;20026;-59
2021/03/14 03:05:22;;;;;;;6.38;1.30;;;6.30;99.90;;;;;;5010833;28;20030;-57
2021/03/14 03:07:56;;;;;;;3.03;1.20;;;6.30;99.90;;;;;;5009621;28;20037;-60
2021/03/14 03:10:27;;;;;;;4.82;1.40;;;6.30;99.90;;;;;;5010837;28;20021;-58
2021/03/14 03:12:57;;;;;;;3.65;1.23;;;6.40;99.90;;;;;;5009651;28;20121;-59
2021/03/14 03:15:23;;;;;;;5.57;1.30;;;6.40;99.90;;;;;;5010779;28;20503;-61
2021/03/14 03:17:50;;;;;;;3.67;1.20;;;6.40;99.90;;;;;;5009546;28;20041;-59
2021/03/14 03:20:17;;;;;;;4.28;1.35;;;6.40;99.90;;;;;;5011045;28;20412;-58
2021/03/14 03:22:43;;;;;;;6.07;1.52;;;6.40;99.90;;;;;;5010318;28;20476;-60
2021/03/14 03:25:10;;;;;;;5.10;1.55;;;6.40;99.90;;;;;;5010701;28;20034;-56
2021/03/14 03:27:36;;;;;;;4.20;1.27;;;6.40;99.90;;;;;;5014170;28;20121;-58
2021/03/14 03:30:09;;;;;;;5.32;1.35;;;6.30;99.90;;;;;;5013481;28;20557;-59
2021/03/14 03:32:35;;;;;;;4.28;1.40;;;6.40;99.90;;;;;;5014126;28;20026;-59
2021/03/14 03:35:03;;;;;;;4.45;1.30;;;6.40;99.90;;;;;;5013195;28;20030;-59
2021/03/14 03:37:29;;;;;;;4.15;1.45;;;6.40;99.90;;;;;;5014675;28;20048;-58
2021/03/14 03:39:55;;;;;;;7.05;1.60;;;6.40;99.90;;;;;;5012726;28;20026;-57
2021/03/14 03:42:25;;;;;;;6.82;1.63;;;6.40;99.90;;;;;;5012174;28;20026;-60
2021/03/14 03:44:54;;;;;;;6.00;1.95;;;6.30;99.90;;;;;;5013288;28;20072;-57
2021/03/14 03:47:21;;;;;;;5.45;1.77;;;6.30;99.90;;;;;;5013683;28;20037;-58
2021/03/14 03:49:50;;;;;;;11.93;1.60;;;6.30;99.90;;;;;;5013190;28;20057;-58
2021/03/14 03:52:17;;;;;;;5.55;1.92;;;6.30;99.90;;;;;;5013759;28;20095;-59
2021/03/14 03:54:46;;;;;;;5.80;1.48;;;6.20;99.90;;;;;;5012169;28;20030;-57
2021/03/14 03:57:13;;;;;;;4.45;1.45;;;6.30;99.90;;;;;;5013134;28;20040;-59
2021/03/14 03:59:39;;;;;;;8.52;1.30;;;6.30;99.90;;;;;;5013380;28;20034;-59
2021/03/14 04:02:06;;;;;;;5.32;1.63;;;6.20;99.90;;;;;;5013609;28;20108;-59
2021/03/14 04:04:34;;;;;;;4.30;1.40;;;6.20;99.90;;;;;;5012850;28;20056;-58
2021/03/14 04:07:02;;;;;;;3.97;1.20;;;6.20;99.90;;;;;;5013480;28;20034;-59
2021/03/14 04:09:28;;;;;;;5.75;1.60;;;6.10;99.90;;;;;;5012659;28;20034;-57
2021/03/14 04:11:55;;;;;;;5.45;1.30;;;6.10;99.90;;;;;;5013271;28;20032;-61
2021/03/14 04:14:22;;;;;;;5.90;1.50;;;6.00;99.90;;;;;;5012354;28;20061;-57
2021/03/14 04:16:49;;;;;;;3.97;1.20;;;6.00;99.90;;;;;;5013848;28;20490;-59
2021/03/14 04:19:18;;;;;;;6.70;1.10;;;5.90;99.90;;;;;;5012260;28;20120;-59
2021/03/14 04:21:46;;;;;;;5.80;1.60;;;5.90;99.90;;;;;;5020310;28;20037;-58
2021/03/14 04:24:13;;;;;;;6.93;1.35;;;5.90;99.90;;;;;;5013286;28;20037;-61
2021/03/14 04:26:42;;;;;;;4.80;1.30;;;5.90;99.90;;;;;;5015648;28;20125;-58
2021/03/14 04:29:09;;;;;;;14.95;1.90;;;5.80;99.90;;;;;;5024420;28;20044;-59
2021/03/14 04:31:39;;;;;;;8.80;1.88;;;5.80;99.90;;;;;;4993049;28;20458;-60
2021/03/14 04:34:05;;;;;;;9.40;1.52;;;5.80;99.90;;;;;;5021356;28;20435;-58
2021/03/14 04:36:31;;;;;;;10.23;1.70;;;5.80;99.90;;;;;;5015303;28;20518;-60
2021/03/14 04:38:57;;;;;;;6.53;1.55;;;5.70;99.90;;;;;;5029643;28;20116;-56
2021/03/14 04:41:23;;;;;;;12.63;2.10;;;5.70;99.90;;;;;;5025378;28;20627;-58
2021/03/14 04:43:50;;;;;;;12.98;2.35;;;5.70;99.90;;;;;;5030955;28;20232;-59
2021/03/14 04:46:16;;;;;;;8.27;1.50;;;5.60;99.90;;;;;;5024581;28;20068;-57
2021/03/14 04:48:42;;;;;;;10.35;2.35;;;5.70;99.90;;;;;;5012817;28;20108;-59
2021/03/14 04:51:08;;;;;;;9.45;1.75;;;5.70;99.90;;;;;;5016810;28;20514;-59
2021/03/14 04:53:35;;;;;;;11.23;1.83;;;5.60;99.90;;;;;;5020008;28;20879;-57
2021/03/14 04:56:02;;;;;;;6.50;1.77;;;5.60;99.90;;;;;;5027679;28;20026;-59
2021/03/14 04:58:28;;;;;;;8.15;1.60;;;5.60;99.90;;;;;;5020817;28;20021;-57
2021/03/14 05:00:54;;;;;;;7.53;1.50;;;5.60;99.90;;;;;;5024357;28;20021;-57
2021/03/14 05:03:22;;;;;;;8.35;1.75;;;5.70;99.90;;;;;;5003961;28;20033;-59
2021/03/14 05:05:49;;;;;;;12.43;2.10;;;5.60;99.90;;;;;;5013962;28;20030;-61
2021/03/14 05:08:21;;;;;;;9.77;1.70;;;5.70;99.90;;;;;;5019141;28;20034;-58
2021/03/14 05:10:48;;;;;;;5.65;1.60;;;5.60;99.90;;;;;;5029687;28;20056;-60
2021/03/14 05:13:14;;;;;;;10.50;2.20;;;5.60;99.90;;;;;;5019154;28;20468;-58
2021/03/14 05:15:41;;;;;;;5.95;1.55;;;5.60;99.90;;;;;;5027813;28;20037;-58
2021/03/14 05:18:11;;;;;;;11.27;2.22;;;5.60;99.90;;;;;;5019578;28;20030;-56
2021/03/14 05:20:38;;;;;;;9.27;1.77;;;5.60;99.90;;;;;;5025108;28;20033;-57
2021/03/14 05:23:03;;;;;;;10.70;1.80;;;5.70;99.90;;;;;;5031766;28;20032;-59
2021/03/14 05:25:29;;;;;;;13.48;1.80;;;5.70;99.90;;;;;;5031017;28;20025;-56
2021/03/14 05:27:56;;;;;;;9.02;1.60;;;5.70;99.90;;;;;;5031074;28;20084;-57
2021/03/14 05:30:28;;;;;;;9.00;2.05;;;5.60;99.90;;;;;;5030773;28;20052;-57
2021/03/14 05:32:55;;;;;;;9.10;1.60;;;5.60;99.90;;;;;;5031307;28;20112;-57
2021/03/14 05:35:23;;;;;;;14.45;2.17;;;5.60;99.90;;;;;;5030830;28;20403;-59
2021/03/14 05:37:49;;;;;;;11.70;2.05;;;5.60;99.90;;;;;;5014067;28;20030;-58
2021/03/14 05:40:18;;;;;;;13.82;2.00;;;5.60;99.90;;;;;;5031408;28;20033;-58
2021/03/14 05:42:43;;;;;;;10.68;1.88;;;5.60;99.90;;;;;;5031305;28;20088;-59
2021/03/14 05:45:10;;;;;;;6.03;2.00;;;5.70;99.90;;;;;;5031087;28;20152;-59
2021/03/14 05:47:37;;;;;;;13.57;2.00;;;5.70;99.90;;;;;;5031144;28;20134;-59
2021/03/14 05:50:06;;;;;;;11.57;2.03;;;5.60;99.90;;;;;;5030312;28;20132;-57
2021/03/14 05:52:32;;;;;;;11.90;1.60;;;5.70;99.90;;;;;;5030264;28;20562;-57
2021/03/14 05:55:00;;;;;;;7.97;1.88;;;5.70;99.90;;;;;;5030957;28;20033;-57
2021/03/14 05:57:27;;;;;;;14.13;2.10;;;5.60;99.90;;;;;;5030967;28;20040;-56
2021/03/14 05:59:52;;;;;;;13.55;2.20;;;5.70;99.90;;;;;;5030892;28;20095;-59
2021/03/14 06:02:19;;;;;;;11.55;1.80;;;5.70;99.90;;;;;;5031011;28;20460;-57
2021/03/14 06:04:46;;;;;;;11.73;1.85;;;5.70;99.90;;;;;;5030724;28;20079;-59
2021/03/14 06:07:13;;;;;;;7.03;1.58;;;5.70;99.90;;;;;;5030603;28;20075;-58
2021/03/14 06:09:39;;;;;;;8.60;2.10;;;5.70;99.90;;;;;;5030533;28;20075;-59
2021/03/14 06:12:10;;;;;;;8.70;1.90;;;5.70;99.90;;;;;;5030534;28;20034;-60
2021/03/14 06:14:35;;;;;;;10.50;1.83;;;5.70;99.90;;;;;;5030881;28;20113;-58
2021/03/14 06:17:01;;;;;;;13.10;2.17;;;5.70;99.90;;;;;;5031267;28;20120;-59
2021/03/14 06:19:27;;;;;;;11.52;1.85;;;5.70;99.90;;;;;;5029983;28;20025;-58
2021/03/14 06:22:22;;;;;;;11.32;1.90;;;5.70;99.90;;;;;;5019503;28;20050;-59
2021/03/14 06:24:50;;;;;;;8.25;1.83;;;5.80;99.90;;;;;;5012166;28;20017;-55
2021/03/14 06:27:37;;;;;;;12.55;1.88;;;5.80;99.90;;;;;;5001169;28;20030;-57
2021/03/14 06:30:08;;;;;;;9.32;1.90;;;5.80;99.90;;;;;;5004559;28;20034;-59
2021/03/14 06:32:35;;;;;;;9.07;1.77;;;5.80;99.90;;;;;;5017007;28;20036;-59
2021/03/14 06:35:16;;;;;;;9.10;1.60;;;5.70;99.90;;;;;;5019259;28;20029;-59
2021/03/14 06:37:43;;;;;;;13.23;1.70;;;5.70;99.90;;;;;;5026210;28;20049;-57
2021/03/14 06:40:18;;;;;;;8.20;1.85;;;5.80;99.90;;;;;;5027176;28;20068;-59
2021/03/14 06:42:43;;;;;;;6.97;1.70;;;5.80;99.90;;;;;;5019971;28;20025;-58
2021/03/14 06:45:17;;;;;;;16.65;2.05;;;5.90;99.90;;;;;;5017589;28;20037;-59
2021/03/14 06:47:48;;;;;;;14.00;1.75;;;5.80;99.90;;;;;;5024730;28;20038;-59
2021/03/14 06:50:40;;;;;;;9.00;2.17;;;5.90;99.90;;;;;;5013565;28;20096;-59
2021/03/14 06:53:06;;;;;;;11.30;2.22;;;5.90;99.90;;;;;;4998428;28;20065;-58
2021/03/14 06:55:32;;;;;;;10.25;1.75;;;5.90;99.90;;;;;;5010279;28;20578;-60
2021/03/14 06:58:20;;;;;;;9.00;1.48;;;5.90;99.90;;;;;;5014746;28;20472;-58
2021/03/14 07:01:12;;;;;;;12.90;2.17;;;5.90;99.90;;;;;;5015488;28;20108;-58
2021/03/14 07:03:41;;;;;;;12.93;2.17;;;5.90;99.90;;;;;;5018442;28;20035;-58
2021/03/14 07:06:26;;;;;;;9.32;1.70;;;5.90;99.90;;;;;;5021495;28;20036;-57
2021/03/14 07:09:11;;;;;;;11.73;2.10;;;6.00;99.90;;;;;;5015314;28;20030;-57
2021/03/14 07:11:42;;;;;;;9.20;1.60;;;5.90;99.90;;;;;;5022575;28;20041;-58
2021/03/14 07:14:16;;;;;;;9.55;2.05;;;6.00;99.90;;;;;;5030032;28;20071;-58
2021/03/14 07:16:42;;;;;;;12.55;2.00;;;6.00;99.90;;;;;;5015536;28;20037;-58
2021/03/14 07:19:09;;;;;;;11.27;1.73;;;5.90;99.90;;;;;;5029844;28;20384;-57
2021/03/14 07:21:35;;;;;;;10.82;1.92;;;5.90;99.90;;;;;;5013548;28;20104;-55
2021/03/14 07:24:01;;;;;;;9.25;1.85;;;5.90;99.90;;;;;;5014801;28;20495;-59
2021/03/14 07:26:41;;;;;;;14.02;1.92;;;6.00;99.90;;;;;;5013082;28;20026;-57
2021/03/14 07:29:07;;;;;;;10.65;1.63;;;6.00;99.90;;;;;;5013373;28;20038;-58
2021/03/14 07:31:35;;;;;;;14.40;2.08;;;6.10;99.90;;;;;;5012814;28;20032;-58
2021/03/14 07:34:04;;;;;;;9.30;1.80;;;6.20;99.90;;;;;;5014178;28;20453;-59
2021/03/14 07:36:30;;;;;;;10.20;1.77;;;6.20;99.90;;;;;;5013523;28;20033;-58
2021/03/14 07:38:57;;;;;;;12.75;2.17;;;6.30;99.90;;;;;;4997077;28;20029;-58
2021/03/14 07:41:25;;;;;;;9.05;1.80;;;6.30;99.90;;;;;;5013235;28;20034;-57
2021/03/14 07:43:52;;;;;;;9.57;2.05;;;6.30;99.90;;;;;;5012664;28;20484;-57
2021/03/14 07:46:21;;;;;;;11.27;1.95;;;6.40;99.90;;;;;;4995301;28;20419;-57
2021/03/14 07:48:49;;;;;;;11.23;1.92;;;6.50;99.90;;;;;;5012556;28;20476;-55
2021/03/14 07:51:17;;;;;;;9.95;2.22;;;6.60;99.90;;;;;;5013048;28;20116;-58
2021/03/14 07:53:44;;;;;;;23.20;3.15;;;6.60;99.90;;;;;;5014061;28;20109;-55
2021/03/14 07:56:10;;;;;;;9.68;1.65;;;6.60;99.90;;;;;;5012728;28;20045;-59
2021/03/14 07:58:36;;;;;;;8.25;1.95;;;6.60;99.90;;;;;;5013393;28;20384;-57
2021/03/14 08:01:27;;;;;;;12.82;2.60;;;6.60;99.90;;;;;;5012961;28;20038;-56
2021/03/14 08:03:54;;;;;;;9.95;2.15;;;6.70;99.90;;;;;;5012468;28;20033;-60
2021/03/14 08:06:42;;;;;;;9.27;1.85;;;6.70;99.90;;;;;;5013152;28;20317;-58
2021/03/14 08:09:08;;;;;;;10.10;2.33;;;6.80;99.90;;;;;;5003489;28;20058;-57
2021/03/14 08:11:34;;;;;;;14.25;1.92;;;6.80;99.90;;;;;;5011578;28;20060;-58
2021/03/14 08:13:59;;;;;;;12.30;2.05;;;6.90;99.90;;;;;;5012668;28;20042;-58
2021/03/14 08:16:25;;;;;;;13.55;2.03;;;7.00;99.90;;;;;;5012500;28;20033;-57
2021/03/14 08:18:52;;;;;;;13.00;2.08;;;7.10;99.90;;;;;;5013339;28;20037;-57
2021/03/14 08:21:21;;;;;;;15.95;2.33;;;7.20;99.90;;;;;;5012217;28;20050;-57
2021/03/14 08:23:49;;;;;;;13.40;2.10;;;7.50;99.90;;;;;;5013220;28;20026;-58
2021/03/14 08:26:15;;;;;;;7.07;1.80;;;7.70;99.90;;;;;;5011377;28;20034;-57
2021/03/14 08:28:52;;;;;;;10.07;1.90;;;7.90;99.90;;;;;;5012770;28;20041;-60
2021/03/14 08:31:38;;;;;;;12.05;2.03;;;8.00;99.90;;;;;;5011359;28;20030;-58
2021/03/14 08:34:07;;;;;;;12.25;2.30;;;8.10;99.90;;;;;;5010491;28;20132;-62
2021/03/14 08:36:35;;;;;;;9.07;1.77;;;8.20;99.90;;;;;;5012006;28;20029;-58
2021/03/14 08:39:02;;;;;;;11.77;2.20;;;8.20;99.90;;;;;;5011626;28;20124;-58
2021/03/14 08:41:40;;;;;;;7.43;1.83;;;8.00;99.90;;;;;;5014773;28;20113;-57
2021/03/14 08:44:13;;;;;;;15.65;2.80;;;8.10;99.90;;;;;;5011571;28;20037;-58
2021/03/14 08:46:51;;;;;;;17.42;2.03;;;8.20;99.90;;;;;;5007315;28;20495;-56
2021/03/14 08:49:23;;;;;;;15.95;2.20;;;8.20;99.90;;;;;;5009132;28;20442;-57
2021/03/14 08:51:50;;;;;;;10.95;1.80;;;8.30;99.90;;;;;;5006085;28;20085;-59
2021/03/14 08:54:23;;;;;;;13.30;2.10;;;8.50;99.90;;;;;;5008050;28;20038;-58
2021/03/14 08:56:53;;;;;;;13.63;2.30;;;8.60;99.90;;;;;;5008326;28;20121;-58
2021/03/14 08:59:20;;;;;;;10.90;1.88;;;8.50;99.90;;;;;;5005837;28;20045;-57
2021/03/14 09:01:51;;;;;;;12.05;2.10;;;8.60;99.90;;;;;;5009675;28;20025;-57
2021/03/14 09:04:31;;;;;;;15.82;2.08;;;8.60;99.90;;;;;;5011680;28;20065;-57
2021/03/14 09:07:05;;;;;;;14.98;2.47;;;8.60;99.90;;;;;;5009750;28;20125;-54
2021/03/14 09:09:31;;;;;;;11.35;2.10;;;8.70;99.90;;;;;;5010854;28;20110;-56
2021/03/14 09:11:59;;;;;;;11.18;1.98;;;8.80;99.90;;;;;;5007692;28;20030;-57
2021/03/14 09:14:27;;;;;;;24.80;2.80;;;8.70;99.90;;;;;;5007804;28;20018;-58
2021/03/14 09:17:07;;;;;;;12.68;2.15;;;8.70;99.90;;;;;;5005951;28;20041;-58
2021/03/14 09:19:50;;;;;;;16.50;2.60;;;8.50;99.90;;;;;;5008596;28;20476;-58
2021/03/14 09:22:24;;;;;;;11.52;2.17;;;8.60;99.90;;;;;;5004154;28;20389;-58
2021/03/14 09:25:00;;;;;;;21.70;2.75;;;8.60;99.90;;;;;;5010780;28;20053;-59
2021/03/14 09:27:31;;;;;;;11.77;2.47;;;8.70;99.90;;;;;;5010035;28;20036;-56
2021/03/14 09:30:08;;;;;;;11.27;2.42;;;8.80;99.90;;;;;;5010966;28;20116;-57
2021/03/14 09:32:41;;;;;;;21.65;2.95;;;8.90;99.90;;;;;;5007624;28;20054;-57
2021/03/14 09:35:29;;;;;;;10.60;2.20;;;8.90;99.90;;;;;;5010151;28;20108;-56
2021/03/14 09:37:56;;;;;;;16.33;2.53;;;8.90;99.90;;;;;;5011682;28;20460;-59
2021/03/14 09:40:33;;;;;;;19.20;2.58;;;8.90;99.90;;;;;;5010426;28;20037;-59
2021/03/14 09:43:10;;;;;;;19.42;2.60;;;8.90;99.90;;;;;;5010822;28;20530;-58
2021/03/14 09:45:37;;;;;;;12.35;2.45;;;8.80;99.90;;;;;;5010246;28;20026;-57
2021/03/14 09:48:05;;;;;;;16.80;2.25;;;8.70;99.90;;;;;;5011733;28;20056;-57
2021/03/14 09:50:43;;;;;;;24.55;2.97;;;8.70;99.90;;;;;;5011023;28;20037;-58
2021/03/14 09:53:10;;;;;;;13.85;2.13;;;8.80;99.90;;;;;;5010357;28;20387;-58
2021/03/14 09:55:37;;;;;;;16.63;2.83;;;8.80;99.90;;;;;;5009192;28;20037;-57
2021/03/14 09:58:07;;;;;;;15.73;2.50;;;8.80;99.90;;;;;;5011167;28;20030;-58
2021/03/14 10:00:33;;;;;;;16.20;2.42;;;8.90;99.90;;;;;;5009878;28;20387;-56
2021/03/14 10:03:09;;;;;;;20.23;2.92;;;9.10;99.90;;;;;;5010389;28;20037;-57
2021/03/14 10:05:37;;;;;;;24.98;3.10;;;9.20;99.90;;;;;;5006483;28;20048;-59
2021/03/14 10:08:03;;;;;;;24.42;3.22;;;9.20;99.90;;;;;;5011847;28;20041;-59
2021/03/14 10:10:30;;;;;;;32.20;3.38;;;9.40;99.90;;;;;;5011143;28;20034;-59
2021/03/14 10:12:56;;;;;;;25.13;3.63;;;9.60;99.90;;;;;;5010564;28;20472;-57
2021/03/14 10:15:22;;;;;;;23.27;2.90;;;9.60;99.90;;;;;;5010155;28;20121;-57
2021/03/14 10:17:48;;;;;;;12.15;2.20;;;9.80;99.90;;;;;;5008319;28;20574;-57
2021/03/14 10:20:19;;;;;;;19.05;2.60;;;9.80;99.90;;;;;;5011110;28;20499;-60
2021/03/14 10:22:44;;;;;;;14.68;2.40;;;9.80;99.90;;;;;;4991748;28;20404;-57
2021/03/14 10:25:40;;;;;;;22.35;3.00;;;9.80;99.90;;;;;;5010551;28;20034;-57
2021/03/14 10:28:05;;;;;;;;;;;10.00;99.90;;;;;;5010327;28;20073;-58
2021/03/14 10:30:31;;;;;;;27.08;3.72;;;10.10;99.90;;;;;;5009909;28;19952;-59
2021/03/14 10:32:57;;;;;;;25.15;2.92;;;10.30;99.90;;;;;;5009470;28;20030;-59
2021/03/14 10:35:23;;;;;;;31.58;3.22;;;10.20;99.90;;;;;;5010169;28;20026;-57
2021/03/14 10:37:49;;;;;;;22.58;2.97;;;10.30;99.90;;;;;;5009141;28;20044;-59
2021/03/14 10:40:19;;;;;;;50.47;5.25;;;10.30;99.90;;;;;;5010778;28;20041;-57
2021/03/14 10:42:49;;;;;;;11.80;2.35;;;10.40;99.90;;;;;;5009294;28;20033;-57
2021/03/14 10:45:23;;;;;;;13.07;2.35;;;10.50;99.90;;;;;;5008482;28;20034;-58
2021/03/14 10:48:03;;;;;;;26.88;3.28;;;10.40;99.90;;;;;;5003957;28;20048;-60
2021/03/14 10:50:33;;;;;;;19.15;2.45;;;10.30;99.90;;;;;;5010409;28;20026;-58
2021/03/14 10:53:14;;;;;;;34.22;3.78;;;10.20;99.90;;;;;;5009311;28;20029;-58
2021/03/14 10:55:41;;;;;;;16.83;2.35;;;10.10;99.90;;;;;;5009821;28;20050;-59
2021/03/14 10:58:10;;;;;;;25.40;3.22;;;10.00;99.90;;;;;;5009356;28;20100;-56
2021/03/14 11:00:41;;;;;;;17.92;2.58;;;10.10;99.90;;;;;;5010350;28;20034;-57
2021/03/14 11:03:13;;;;;;;24.33;2.47;;;10.20;99.90;;;;;;5009266;28;20034;-58
2021/03/14 11:05:40;;;;;;;17.15;2.53;;;10.30;99.90;;;;;;5010109;28;20036;-59
2021/03/14 11:08:06;;;;;;;22.88;2.67;;;10.30;99.90;;;;;;5008542;28;20030;-56
2021/03/14 11:10:32;;;;;;;18.20;2.65;;;10.40;99.90;;;;;;5010411;28;20420;-59
2021/03/14 11:12:58;;;;;;;24.38;2.80;;;10.40;99.90;;;;;;5009221;28;20033;-59
2021/03/14 11:15:27;;;;;;;15.30;2.25;;;10.50;99.90;;;;;;5010315;28;20446;-58
2021/03/14 11:17:55;;;;;;;23.40;3.15;;;10.50;99.90;;;;;;5003103;28;20050;-59
2021/03/14 11:20:23;;;;;;;17.45;2.63;;;10.50;99.90;;;;;;5006475;28;20145;-58
2021/03/14 11:22:54;;;;;;;13.15;2.05;;;10.50;99.90;;;;;;5028014;28;20041;-57
2021/03/14 11:25:20;;;;;;;19.90;2.92;;;10.40;99.90;;;;;;5030423;28;20037;-56
2021/03/14 11:27:47;;;;;;;17.30;3.00;;;10.50;99.90;;;;;;5027642;28;20045;-58
2021/03/14 11:30:16;;;;;;;32.85;3.78;;;10.60;99.90;;;;;;5028710;28;20053;-58
2021/03/14 11:32:42;;;;;;;31.92;4.38;;;10.90;99.90;;;;;;5029136;28;20017;-57
2021/03/14 11:35:09;;;;;;;14.30;2.33;;;11.00;99.90;;;;;;5029132;28;20041;-56
2021/03/14 11:37:36;;;;;;;16.35;2.50;;;11.10;99.90;;;;;;5030864;28;20057;-59
2021/03/14 11:40:04;;;;;;;21.90;2.47;;;10.90;99.90;;;;;;5028501;28;20048;-59
2021/03/14 11:42:29;;;;;;;26.20;2.83;;;10.80;99.90;;;;;;5028261;28;20776;-58
2021/03/14 11:44:55;;;;;;;17.65;2.95;;;10.80;99.90;;;;;;5027434;28;20057;-59
2021/03/14 11:47:22;;;;;;;11.55;2.05;;;11.00;99.90;;;;;;5026630;28;20048;-58
2021/03/14 11:49:48;;;;;;;12.13;2.60;;;11.10;99.90;;;;;;5030964;28;20105;-59
2021/03/14 11:52:14;;;;;;;17.27;2.92;;;11.20;99.90;;;;;;5030513;28;20025;-58
2021/03/14 11:54:39;;;;;;;17.65;3.17;;;11.30;99.90;;;;;;5032367;28;20121;-57
2021/03/14 11:57:05;;;;;;;22.98;2.78;;;11.20;99.90;;;;;;5033360;28;20030;-57
2021/03/14 11:59:31;;;;;;;13.68;2.40;;;11.10;99.90;;;;;;5033833;28;20075;-57
2021/03/14 12:01:57;;;;;;;20.13;2.60;;;11.20;99.90;;;;;;5035817;28;20060;-56
2021/03/14 12:04:23;;;;;;;21.15;2.30;;;11.30;99.90;;;;;;5032719;28;20076;-59
2021/03/14 12:06:48;;;;;;;16.85;2.53;;;11.50;99.90;;;;;;5031541;28;20081;-56
2021/03/14 12:09:14;;;;;;;12.18;2.50;;;11.40;99.90;;;;;;5032216;28;20067;-57
2021/03/14 12:11:41;;;;;;;9.68;1.90;;;11.20;99.90;;;;;;5032434;28;20064;-57
2021/03/14 12:14:07;;;;;;;16.23;2.78;;;11.10;99.90;;;;;;5031248;28;20045;-58
2021/03/14 12:16:33;;;;;;;18.48;2.53;;;11.00;99.90;;;;;;5031848;28;20025;-59
2021/03/14 12:18:58;;;;;;;14.30;2.50;;;11.10;99.90;;;;;;5030816;28;20038;-59
2021/03/14 12:21:24;;;;;;;17.73;2.58;;;11.00;99.90;;;;;;5029486;28;20053;-56
2021/03/14 12:23:50;;;;;;;10.65;2.08;;;10.90;99.90;;;;;;5030182;28;20530;-58
2021/03/14 12:26:15;;;;;;;10.27;1.70;;;10.90;99.90;;;;;;5031651;28;20041;-59
2021/03/14 12:28:42;;;;;;;21.65;2.78;;;10.90;99.90;;;;;;5030509;28;20036;-58
2021/03/14 12:31:08;;;;;;;13.82;2.10;;;11.00;99.90;;;;;;5031010;28;20041;-58
2021/03/14 12:33:33;;;;;;;16.55;2.65;;;10.90;99.90;;;;;;5029450;28;20449;-58
2021/03/14 12:35:59;;;;;;;25.48;2.92;;;11.00;99.90;;;;;;5030915;28;20506;-58
2021/03/14 12:38:25;;;;;;;26.67;3.25;;;11.00;99.90;;;;;;5030504;28;20395;-56
2021/03/14 12:40:51;;;;;;;20.88;2.50;;;11.00;99.90;;;;;;5013246;28;20041;-59
2021/03/14 12:43:18;;;;;;;19.50;2.45;;;11.00;99.90;;;;;;5031116;28;20025;-58
2021/03/14 12:45:47;;;;;;;16.33;2.70;;;11.10;99.90;;;;;;5032112;28;20029;-59
2021/03/14 12:48:13;;;;;;;14.40;2.35;;;11.20;99.90;;;;;;5030471;28;20083;-58
2021/03/14 12:50:38;;;;;;;21.15;5.22;;;11.20;99.90;;;;;;5028023;28;20033;-57
2021/03/14 12:53:04;;;;;;;25.33;3.20;;;11.20;99.90;;;;;;5031242;28;20029;-57
2021/03/14 12:55:30;;;;;;;12.65;2.20;;;11.10;99.90;;;;;;5031208;28;20148;-59
2021/03/14 12:57:55;;;;;;;14.45;2.42;;;11.20;99.90;;;;;;5028861;28;20040;-58